sim
Sign-in with your pilot id or email,
or register
Callsign
Passwort

Schedule Details

Flight Number: RYR1146 (2)
Departure: Berlin Schonefeld Airport (EDDB) at 14:55
Arrival: Thessaloniki International Airport (LGTS) at 17:25
Route: Ryanair Passenger Schedule. Enter filed route here before submitting Pirep.

Weather Information
Getting current METAR information for EDDB 211450Z 27009KT 9999 -RA BKN030 10/06 Q1022 NOSIG
Getting current METAR information for LGTS 211450Z 34007KT CAVOK 16/00 Q1022 NOSIG

Schedule Frequency

Route Map